sensor_id;sensor_type;location;lat;lon;timestamp;pressure;altitude;pressure_sealevel;temperature;humidity
28027;BME280;15344;52.342;-1.290;2023-01-26T00:00:41;101652.92;;;7.82;91.99
28027;BME280;15344;52.342;-1.290;2023-01-26T00:03:07;101652.06;;;7.09;93.35
28027;BME280;15344;52.342;-1.290;2023-01-26T00:05:36;101648.16;;;7.74;91.03
28027;BME280;15344;52.342;-1.290;2023-01-26T00:07:58;101641.11;;;7.71;90.74
28027;BME280;15344;52.342;-1.290;2023-01-26T00:10:23;101634.49;;;7.40;92.34
28027;BME280;15344;52.342;-1.290;2023-01-26T00:12:49;101631.36;;;7.15;92.35
28027;BME280;15344;52.342;-1.290;2023-01-26T00:15:15;101632.26;;;7.22;92.69
28027;BME280;15344;52.342;-1.290;2023-01-26T00:17:41;101629.57;;;7.07;91.88
28027;BME280;15344;52.342;-1.290;2023-01-26T00:20:08;101629.26;;;6.88;93.11
28027;BME280;15344;52.342;-1.290;2023-01-26T00:22:32;101632.04;;;7.23;91.45
28027;BME280;15344;52.342;-1.290;2023-01-26T00:24:57;101630.49;;;6.40;94.79
28027;BME280;15344;52.342;-1.290;2023-01-26T00:27:23;101638.05;;;6.70;93.87
28027;BME280;15344;52.342;-1.290;2023-01-26T00:29:48;101631.00;;;7.31;91.98
28027;BME280;15344;52.342;-1.290;2023-01-26T00:32:13;101626.81;;;7.31;91.22
28027;BME280;15344;52.342;-1.290;2023-01-26T00:34:39;101632.94;;;6.10;95.43
28027;BME280;15344;52.342;-1.290;2023-01-26T00:37:05;101625.91;;;7.00;90.74
28027;BME280;15344;52.342;-1.290;2023-01-26T00:39:30;101625.66;;;7.16;90.93
28027;BME280;15344;52.342;-1.290;2023-01-26T00:41:55;101635.91;;;5.81;96.93
28027;BME280;15344;52.342;-1.290;2023-01-26T00:44:21;101630.98;;;6.22;94.65
28027;BME280;15344;52.342;-1.290;2023-01-26T00:46:46;101637.20;;;6.99;92.43
28027;BME280;15344;52.342;-1.290;2023-01-26T00:49:12;101636.94;;;6.88;94.04
28027;BME280;15344;52.342;-1.290;2023-01-26T00:51:37;101644.52;;;6.59;96.26
28027;BME280;15344;52.342;-1.290;2023-01-26T00:54:03;101640.53;;;7.03;93.59
28027;BME280;15344;52.342;-1.290;2023-01-26T00:56:28;101639.11;;;6.61;95.71
28027;BME280;15344;52.342;-1.290;2023-01-26T00:58:54;101634.04;;;6.80;90.88
28027;BME280;15344;52.342;-1.290;2023-01-26T01:01:19;101635.63;;;7.16;90.92
28027;BME280;15344;52.342;-1.290;2023-01-26T01:03:44;101640.03;;;6.39;93.14
28027;BME280;15344;52.342;-1.290;2023-01-26T01:06:10;101638.09;;;6.72;92.92
28027;BME280;15344;52.342;-1.290;2023-01-26T01:08:36;101644.75;;;6.28;95.16
28027;BME280;15344;52.342;-1.290;2023-01-26T01:11:05;101642.80;;;7.31;90.87
28027;BME280;15344;52.342;-1.290;2023-01-26T01:13:26;101640.97;;;7.48;88.74
28027;BME280;15344;52.342;-1.290;2023-01-26T01:15:52;101642.74;;;7.03;88.69
28027;BME280;15344;52.342;-1.290;2023-01-26T01:18:17;101651.49;;;7.64;87.87
28027;BME280;15344;52.342;-1.290;2023-01-26T01:20:43;101647.85;;;6.89;88.95
28027;BME280;15344;52.342;-1.290;2023-01-26T01:23:08;101650.56;;;6.94;88.88
28027;BME280;15344;52.342;-1.290;2023-01-26T01:25:34;101651.29;;;7.05;88.31
28027;BME280;15344;52.342;-1.290;2023-01-26T01:28:00;101653.19;;;7.67;86.92
28027;BME280;15344;52.342;-1.290;2023-01-26T01:30:25;101649.76;;;6.63;88.15
28027;BME280;15344;52.342;-1.290;2023-01-26T01:32:50;101650.79;;;7.03;88.32
28027;BME280;15344;52.342;-1.290;2023-01-26T01:35:16;101653.43;;;6.85;87.28
28027;BME280;15344;52.342;-1.290;2023-01-26T01:37:42;101647.80;;;7.21;87.96
28027;BME280;15344;52.342;-1.290;2023-01-26T01:40:11;101649.51;;;7.75;84.96
28027;BME280;15344;52.342;-1.290;2023-01-26T01:42:33;101648.76;;;6.89;86.83
28027;BME280;15344;52.342;-1.290;2023-01-26T01:47:24;101642.40;;;6.99;85.69
28027;BME280;15344;52.342;-1.290;2023-01-26T01:49:51;101642.87;;;7.29;86.22
28027;BME280;15344;52.342;-1.290;2023-01-26T01:52:18;101648.60;;;7.12;86.35
28027;BME280;15344;52.342;-1.290;2023-01-26T01:54:43;101647.84;;;6.67;87.28
28027;BME280;15344;52.342;-1.290;2023-01-26T01:57:10;101653.20;;;6.20;88.02
28027;BME280;15344;52.342;-1.290;2023-01-26T01:59:32;101655.41;;;6.11;89.73
28027;BME280;15344;52.342;-1.290;2023-01-26T02:01:58;101644.97;;;6.74;87.47
28027;BME280;15344;52.342;-1.290;2023-01-26T02:04:24;101651.50;;;6.41;89.13
28027;BME280;15344;52.342;-1.290;2023-01-26T02:06:51;101644.29;;;6.81;87.35
28027;BME280;15344;52.342;-1.290;2023-01-26T02:09:16;101645.96;;;7.12;85.83
28027;BME280;15344;52.342;-1.290;2023-01-26T02:11:42;101649.51;;;7.06;85.16
28027;BME280;15344;52.342;-1.290;2023-01-26T02:14:08;101654.06;;;7.02;84.11
28027;BME280;15344;52.342;-1.290;2023-01-26T02:16:31;101658.41;;;6.23;89.25
28027;BME280;15344;52.342;-1.290;2023-01-26T02:18:57;101652.88;;;7.02;85.43
28027;BME280;15344;52.342;-1.290;2023-01-26T02:21:23;101652.00;;;7.01;84.84
28027;BME280;15344;52.342;-1.290;2023-01-26T02:23:56;101656.39;;;6.15;87.42
28027;BME280;15344;52.342;-1.290;2023-01-26T02:26:15;101652.26;;;6.44;87.58
28027;BME280;15344;52.342;-1.290;2023-01-26T02:28:40;101657.45;;;6.38;88.62
28027;BME280;15344;52.342;-1.290;2023-01-26T02:31:06;101654.75;;;6.39;87.46
28027;BME280;15344;52.342;-1.290;2023-01-26T02:33:32;101650.19;;;6.54;86.35
28027;BME280;15344;52.342;-1.290;2023-01-26T02:35:56;101654.76;;;6.80;86.40
28027;BME280;15344;52.342;-1.290;2023-01-26T02:38:24;101655.63;;;6.86;85.84
28027;BME280;15344;52.342;-1.290;2023-01-26T02:40:51;101657.47;;;6.27;88.50
28027;BME280;15344;52.342;-1.290;2023-01-26T02:43:13;101667.58;;;6.20;88.84
28027;BME280;15344;52.342;-1.290;2023-01-26T02:45:39;101663.92;;;6.75;87.38
28027;BME280;15344;52.342;-1.290;2023-01-26T02:48:04;101666.86;;;6.05;88.53
28027;BME280;15344;52.342;-1.290;2023-01-26T02:50:30;101669.73;;;6.23;89.92
28027;BME280;15344;52.342;-1.290;2023-01-26T02:52:55;101672.84;;;6.81;86.84
28027;BME280;15344;52.342;-1.290;2023-01-26T02:55:20;101672.82;;;5.40;91.37
28027;BME280;15344;52.342;-1.290;2023-01-26T02:57:46;101684.58;;;6.19;87.90
28027;BME280;15344;52.342;-1.290;2023-01-26T03:00:14;101678.33;;;6.39;86.98
28027;BME280;15344;52.342;-1.290;2023-01-26T03:02:37;101681.11;;;6.37;88.97
28027;BME280;15344;52.342;-1.290;2023-01-26T03:05:03;101674.60;;;4.83;94.11
28027;BME280;15344;52.342;-1.290;2023-01-26T03:07:28;101672.23;;;5.00;94.88
28027;BME280;15344;52.342;-1.290;2023-01-26T03:09:53;101666.13;;;4.69;98.53
28027;BME280;15344;52.342;-1.290;2023-01-26T03:12:19;101667.93;;;4.83;97.75
28027;BME280;15344;52.342;-1.290;2023-01-26T03:14:44;101671.93;;;4.79;98.71
28027;BME280;15344;52.342;-1.290;2023-01-26T03:17:10;101678.39;;;5.26;96.27
28027;BME280;15344;52.342;-1.290;2023-01-26T03:19:35;101678.75;;;5.51;93.10
28027;BME280;15344;52.342;-1.290;2023-01-26T03:22:01;101680.25;;;5.18;97.76
28027;BME280;15344;52.342;-1.290;2023-01-26T03:24:27;101683.10;;;4.85;99.27
28027;BME280;15344;52.342;-1.290;2023-01-26T03:26:52;101679.91;;;5.55;95.02
28027;BME280;15344;52.342;-1.290;2023-01-26T03:29:18;101672.20;;;5.40;94.97
28027;BME280;15344;52.342;-1.290;2023-01-26T03:31:43;101667.79;;;5.35;96.21
28027;BME280;15344;52.342;-1.290;2023-01-26T03:34:09;101666.29;;;5.87;93.42
28027;BME280;15344;52.342;-1.290;2023-01-26T03:36:35;101668.43;;;5.91;92.83
28027;BME280;15344;52.342;-1.290;2023-01-26T03:39:00;101673.38;;;6.15;92.31
28027;BME280;15344;52.342;-1.290;2023-01-26T03:41:26;101680.80;;;4.98;95.00
28027;BME280;15344;52.342;-1.290;2023-01-26T03:43:51;101680.56;;;5.40;96.65
28027;BME280;15344;52.342;-1.290;2023-01-26T03:46:17;101685.77;;;5.70;92.91
28027;BME280;15344;52.342;-1.290;2023-01-26T03:48:42;101685.76;;;6.23;90.62
28027;BME280;15344;52.342;-1.290;2023-01-26T03:51:07;101684.79;;;6.49;89.15
28027;BME280;15344;52.342;-1.290;2023-01-26T03:53:33;101684.49;;;6.15;89.79
28027;BME280;15344;52.342;-1.290;2023-01-26T03:55:59;101681.02;;;4.88;93.58
28027;BME280;15344;52.342;-1.290;2023-01-26T03:58:25;101686.36;;;5.72;91.01
28027;BME280;15344;52.342;-1.290;2023-01-26T04:00:50;101689.23;;;6.00;89.18
28027;BME280;15344;52.342;-1.290;2023-01-26T04:03:16;101683.50;;;6.12;89.18
28027;BME280;15344;52.342;-1.290;2023-01-26T04:05:41;101677.62;;;6.09;89.38
28027;BME280;15344;52.342;-1.290;2023-01-26T04:08:07;101675.57;;;5.42;91.30
28027;BME280;15344;52.342;-1.290;2023-01-26T04:10:33;101679.06;;;5.29;94.33
28027;BME280;15344;52.342;-1.290;2023-01-26T04:12:58;101684.15;;;4.14;97.45
28027;BME280;15344;52.342;-1.290;2023-01-26T04:15:23;101697.82;;;3.75;100.00
28027;BME280;15344;52.342;-1.290;2023-01-26T04:17:49;101705.55;;;3.17;100.00
28027;BME280;15344;52.342;-1.290;2023-01-26T04:20:15;101697.31;;;4.73;100.00
28027;BME280;15344;52.342;-1.290;2023-01-26T04:22:41;101696.61;;;4.83;98.76
28027;BME280;15344;52.342;-1.290;2023-01-26T04:25:07;101693.47;;;3.96;100.00
28027;BME280;15344;52.342;-1.290;2023-01-26T04:27:32;101688.75;;;4.27;100.00
28027;BME280;15344;52.342;-1.290;2023-01-26T04:29:57;101684.92;;;4.86;98.55
28027;BME280;15344;52.342;-1.290;2023-01-26T04:32:23;101690.27;;;4.06;100.00
28027;BME280;15344;52.342;-1.290;2023-01-26T04:34:49;101695.90;;;4.93;100.00
28027;BME280;15344;52.342;-1.290;2023-01-26T04:37:15;101704.30;;;3.75;100.00
28027;BME280;15344;52.342;-1.290;2023-01-26T04:39:40;101707.88;;;4.83;100.00
28027;BME280;15344;52.342;-1.290;2023-01-26T04:42:06;101711.85;;;4.88;100.00
28027;BME280;15344;52.342;-1.290;2023-01-26T04:44:31;101713.27;;;4.64;100.00
28027;BME280;15344;52.342;-1.290;2023-01-26T04:46:57;101714.27;;;5.18;97.36
28027;BME280;15344;52.342;-1.290;2023-01-26T04:49:22;101714.77;;;5.12;99.20
28027;BME280;15344;52.342;-1.290;2023-01-26T04:51:48;101710.53;;;5.94;97.21
28027;BME280;15344;52.342;-1.290;2023-01-26T04:54:14;101712.39;;;5.58;98.03
28027;BME280;15344;52.342;-1.290;2023-01-26T04:56:40;101705.52;;;5.64;97.21
28027;BME280;15344;52.342;-1.290;2023-01-26T04:59:06;101711.07;;;6.35;93.21
28027;BME280;15344;52.342;-1.290;2023-01-26T05:01:30;101707.84;;;5.75;93.83
28027;BME280;15344;52.342;-1.290;2023-01-26T05:03:59;101701.34;;;5.72;95.46
28027;BME280;15344;52.342;-1.290;2023-01-26T05:06:21;101701.12;;;5.96;95.53
28027;BME280;15344;52.342;-1.290;2023-01-26T05:08:46;101701.23;;;5.46;96.89
28027;BME280;15344;52.342;-1.290;2023-01-26T05:11:12;101701.34;;;5.13;98.50
28027;BME280;15344;52.342;-1.290;2023-01-26T05:13:38;101704.03;;;5.33;99.72
28027;BME280;15344;52.342;-1.290;2023-01-26T05:16:04;101703.93;;;5.42;98.05
28027;BME280;15344;52.342;-1.290;2023-01-26T05:18:29;101698.61;;;5.28;99.13
28027;BME280;15344;52.342;-1.290;2023-01-26T05:20:55;101697.70;;;5.28;100.00
28027;BME280;15344;52.342;-1.290;2023-01-26T05:23:21;101699.73;;;5.03;100.00
28027;BME280;15344;52.342;-1.290;2023-01-26T05:25:46;101711.32;;;5.52;98.63
28027;BME280;15344;52.342;-1.290;2023-01-26T05:28:11;101714.20;;;5.31;100.00
28027;BME280;15344;52.342;-1.290;2023-01-26T05:30:37;101707.38;;;5.54;98.42
28027;BME280;15344;52.342;-1.290;2023-01-26T05:33:03;101708.79;;;5.29;98.01
28027;BME280;15344;52.342;-1.290;2023-01-26T05:35:28;101710.64;;;5.57;97.46
28027;BME280;15344;52.342;-1.290;2023-01-26T05:37:54;101710.01;;;4.76;100.00
28027;BME280;15344;52.342;-1.290;2023-01-26T05:40:19;101711.44;;;5.59;100.00
28027;BME280;15344;52.342;-1.290;2023-01-26T05:42:45;101715.10;;;5.16;100.00
28027;BME280;15344;52.342;-1.290;2023-01-26T05:45:10;101716.13;;;5.33;100.00
28027;BME280;15344;52.342;-1.290;2023-01-26T05:47:36;101712.81;;;5.59;100.00
28027;BME280;15344;52.342;-1.290;2023-01-26T05:50:02;101719.77;;;5.48;99.10
28027;BME280;15344;52.342;-1.290;2023-01-26T05:52:27;101722.51;;;5.37;100.00
28027;BME280;15344;52.342;-1.290;2023-01-26T05:54:53;101723.14;;;6.09;99.18
28027;BME280;15344;52.342;-1.290;2023-01-26T05:57:18;101723.83;;;5.79;100.00
28027;BME280;15344;52.342;-1.290;2023-01-26T05:59:44;101723.88;;;5.06;100.00
28027;BME280;15344;52.342;-1.290;2023-01-26T06:02:11;101730.63;;;5.36;100.00
28027;BME280;15344;52.342;-1.290;2023-01-26T06:04:35;101728.76;;;5.85;98.82
28027;BME280;15344;52.342;-1.290;2023-01-26T06:07:01;101731.67;;;6.10;97.63
28027;BME280;15344;52.342;-1.290;2023-01-26T06:09:26;101732.85;;;4.16;100.00
28027;BME280;15344;52.342;-1.290;2023-01-26T06:11:52;101730.41;;;6.21;98.98
28027;BME280;15344;52.342;-1.290;2023-01-26T06:14:18;101732.66;;;5.72;98.34
28027;BME280;15344;52.342;-1.290;2023-01-26T06:16:43;101741.57;;;5.55;99.85
28027;BME280;15344;52.342;-1.290;2023-01-26T06:19:09;101746.13;;;5.46;100.00
28027;BME280;15344;52.342;-1.290;2023-01-26T06:21:35;101746.04;;;6.41;98.92
28027;BME280;15344;52.342;-1.290;2023-01-26T06:24:00;101745.75;;;5.29;100.00
28027;BME280;15344;52.342;-1.290;2023-01-26T06:26:26;101751.66;;;5.93;99.34
28027;BME280;15344;52.342;-1.290;2023-01-26T06:28:52;101749.78;;;5.78;99.37
28027;BME280;15344;52.342;-1.290;2023-01-26T06:31:17;101761.18;;;5.97;95.17
28027;BME280;15344;52.342;-1.290;2023-01-26T06:33:43;101761.33;;;5.74;99.65
28027;BME280;15344;52.342;-1.290;2023-01-26T06:36:10;101764.60;;;6.17;96.21
28027;BME280;15344;52.342;-1.290;2023-01-26T06:38:34;101764.89;;;6.47;94.30
28027;BME280;15344;52.342;-1.290;2023-01-26T06:41:00;101760.26;;;6.69;95.68
28027;BME280;15344;52.342;-1.290;2023-01-26T06:43:25;101758.75;;;6.42;97.13
28027;BME280;15344;52.342;-1.290;2023-01-26T06:45:50;101760.48;;;6.57;94.20
28027;BME280;15344;52.342;-1.290;2023-01-26T06:48:16;101755.27;;;6.90;94.36
28027;BME280;15344;52.342;-1.290;2023-01-26T06:50:43;101760.14;;;5.97;97.66
28027;BME280;15344;52.342;-1.290;2023-01-26T06:55:35;101764.65;;;7.79;89.98
28027;BME280;15344;52.342;-1.290;2023-01-26T06:57:59;101771.25;;;8.12;88.31
28027;BME280;15344;52.342;-1.290;2023-01-26T07:00:24;101775.76;;;7.18;89.57
28027;BME280;15344;52.342;-1.290;2023-01-26T07:02:49;101778.44;;;7.09;91.61
28027;BME280;15344;52.342;-1.290;2023-01-26T07:05:15;101781.62;;;7.91;87.82
28027;BME280;15344;52.342;-1.290;2023-01-26T07:07:40;101780.65;;;7.41;90.97
28027;BME280;15344;52.342;-1.290;2023-01-26T07:10:07;101781.38;;;7.92;86.71
28027;BME280;15344;52.342;-1.290;2023-01-26T07:12:37;101786.51;;;8.20;86.81
28027;BME280;15344;52.342;-1.290;2023-01-26T07:14:57;101791.33;;;7.91;87.64
28027;BME280;15344;52.342;-1.290;2023-01-26T07:17:23;101792.33;;;7.31;89.95
28027;BME280;15344;52.342;-1.290;2023-01-26T07:19:48;101790.43;;;7.69;88.09
28027;BME280;15344;52.342;-1.290;2023-01-26T07:22:14;101784.98;;;7.65;88.32
28027;BME280;15344;52.342;-1.290;2023-01-26T07:24:39;101788.69;;;7.62;88.78
28027;BME280;15344;52.342;-1.290;2023-01-26T07:27:06;101792.81;;;7.91;86.12
28027;BME280;15344;52.342;-1.290;2023-01-26T07:29:30;101786.11;;;8.33;84.48
28027;BME280;15344;52.342;-1.290;2023-01-26T07:31:56;101781.79;;;6.68;90.67
28027;BME280;15344;52.342;-1.290;2023-01-26T07:34:21;101776.98;;;7.90;86.87
28027;BME280;15344;52.342;-1.290;2023-01-26T07:36:50;101776.68;;;7.42;89.27
28027;BME280;15344;52.342;-1.290;2023-01-26T07:39:12;101787.76;;;7.60;88.94
28027;BME280;15344;52.342;-1.290;2023-01-26T07:41:38;101784.64;;;7.39;89.66
28027;BME280;15344;52.342;-1.290;2023-01-26T07:44:07;101798.05;;;6.73;92.10
28027;BME280;15344;52.342;-1.290;2023-01-26T07:46:29;101801.55;;;7.08;91.93
28027;BME280;15344;52.342;-1.290;2023-01-26T07:48:55;101789.25;;;7.09;92.37
28027;BME280;15344;52.342;-1.290;2023-01-26T07:51:20;101781.86;;;7.59;90.28
28027;BME280;15344;52.342;-1.290;2023-01-26T07:53:46;101787.78;;;5.98;96.85
28027;BME280;15344;52.342;-1.290;2023-01-26T07:56:13;101785.45;;;6.35;97.67
28027;BME280;15344;52.342;-1.290;2023-01-26T07:58:38;101785.14;;;5.71;100.00
28027;BME280;15344;52.342;-1.290;2023-01-26T08:01:06;101786.77;;;5.70;100.00
28027;BME280;15344;52.342;-1.290;2023-01-26T08:03:28;101787.93;;;7.26;92.49
28027;BME280;15344;52.342;-1.290;2023-01-26T08:05:54;101789.50;;;7.54;88.67
28027;BME280;15344;52.342;-1.290;2023-01-26T08:08:20;101795.21;;;7.59;89.37
28027;BME280;15344;52.342;-1.290;2023-01-26T08:10:45;101800.47;;;7.57;90.52
28027;BME280;15344;52.342;-1.290;2023-01-26T08:13:11;101805.76;;;6.77;94.76
28027;BME280;15344;52.342;-1.290;2023-01-26T08:15:36;101804.94;;;7.87;94.15
28027;BME280;15344;52.342;-1.290;2023-01-26T08:18:02;101806.87;;;6.93;94.92
28027;BME280;15344;52.342;-1.290;2023-01-26T08:20:28;101804.31;;;8.03;91.01
28027;BME280;15344;52.342;-1.290;2023-01-26T08:22:53;101805.29;;;7.91;89.98
28027;BME280;15344;52.342;-1.290;2023-01-26T08:25:19;101809.83;;;7.06;96.70
28027;BME280;15344;52.342;-1.290;2023-01-26T08:27:44;101808.61;;;6.83;97.16
28027;BME280;15344;52.342;-1.290;2023-01-26T08:30:12;101816.26;;;6.23;100.00
28027;BME280;15344;52.342;-1.290;2023-01-26T08:32:35;101823.86;;;7.15;97.69
28027;BME280;15344;52.342;-1.290;2023-01-26T08:35:01;101824.67;;;7.04;97.10
28027;BME280;15344;52.342;-1.290;2023-01-26T08:37:26;101828.14;;;7.07;95.52
28027;BME280;15344;52.342;-1.290;2023-01-26T08:39:52;101827.04;;;6.54;97.59
28027;BME280;15344;52.342;-1.290;2023-01-26T08:42:18;101828.32;;;6.05;100.00
28027;BME280;15344;52.342;-1.290;2023-01-26T08:44:43;101828.27;;;5.96;99.49
28027;BME280;15344;52.342;-1.290;2023-01-26T08:47:08;101828.80;;;7.28;96.60
28027;BME280;15344;52.342;-1.290;2023-01-26T08:49:34;101832.48;;;6.78;99.07
28027;BME280;15344;52.342;-1.290;2023-01-26T08:52:00;101831.56;;;6.30;97.22
28027;BME280;15344;52.342;-1.290;2023-01-26T08:54:25;101830.71;;;5.32;100.00
28027;BME280;15344;52.342;-1.290;2023-01-26T08:56:50;101832.91;;;5.34;100.00
28027;BME280;15344;52.342;-1.290;2023-01-26T08:59:16;101838.89;;;6.09;100.00
28027;BME280;15344;52.342;-1.290;2023-01-26T09:01:41;101840.43;;;5.91;100.00
28027;BME280;15344;52.342;-1.290;2023-01-26T09:04:07;101838.39;;;5.11;100.00
28027;BME280;15344;52.342;-1.290;2023-01-26T09:06:32;101837.18;;;6.14;100.00
28027;BME280;15344;52.342;-1.290;2023-01-26T09:08:58;101841.21;;;6.76;100.00
28027;BME280;15344;52.342;-1.290;2023-01-26T09:11:24;101844.30;;;6.45;100.00
28027;BME280;15344;52.342;-1.290;2023-01-26T09:13:49;101843.20;;;6.77;100.00
28027;BME280;15344;52.342;-1.290;2023-01-26T09:16:18;101846.99;;;6.33;100.00
28027;BME280;15344;52.342;-1.290;2023-01-26T09:18:40;101845.15;;;6.59;100.00
28027;BME280;15344;52.342;-1.290;2023-01-26T09:21:08;101841.09;;;6.92;100.00
28027;BME280;15344;52.342;-1.290;2023-01-26T09:23:32;101834.38;;;5.92;100.00
28027;BME280;15344;52.342;-1.290;2023-01-26T09:25:57;101834.32;;;6.08;100.00
28027;BME280;15344;52.342;-1.290;2023-01-26T09:28:22;101840.88;;;6.29;100.00
28027;BME280;15344;52.342;-1.290;2023-01-26T09:30:48;101845.05;;;4.65;100.00
28027;BME280;15344;52.342;-1.290;2023-01-26T09:33:14;101846.44;;;5.71;100.00
28027;BME280;15344;52.342;-1.290;2023-01-26T09:35:39;101849.96;;;4.41;100.00
28027;BME280;15344;52.342;-1.290;2023-01-26T09:38:05;101844.95;;;5.12;100.00
28027;BME280;15344;52.342;-1.290;2023-01-26T09:40:36;101840.55;;;6.55;100.00
28027;BME280;15344;52.342;-1.290;2023-01-26T09:43:03;101851.16;;;6.81;100.00
28027;BME280;15344;52.342;-1.290;2023-01-26T09:45:28;101855.16;;;5.83;100.00
28027;BME280;15344;52.342;-1.290;2023-01-26T09:48:01;101850.46;;;7.37;100.00
28027;BME280;15344;52.342;-1.290;2023-01-26T09:50:14;101847.64;;;7.40;100.00
28027;BME280;15344;52.342;-1.290;2023-01-26T09:52:41;101844.74;;;7.54;100.00
28027;BME280;15344;52.342;-1.290;2023-01-26T09:55:05;101847.76;;;7.39;100.00
28027;BME280;15344;52.342;-1.290;2023-01-26T09:57:35;101848.15;;;7.15;100.00
28027;BME280;15344;52.342;-1.290;2023-01-26T09:59:57;101850.57;;;6.42;100.00
28027;BME280;15344;52.342;-1.290;2023-01-26T10:02:31;101855.09;;;6.94;100.00
28027;BME280;15344;52.342;-1.290;2023-01-26T10:04:46;101863.81;;;5.44;100.00
28027;BME280;15344;52.342;-1.290;2023-01-26T10:07:12;101865.57;;;5.66;100.00
28027;BME280;15344;52.342;-1.290;2023-01-26T10:09:37;101867.50;;;6.51;100.00
28027;BME280;15344;52.342;-1.290;2023-01-26T10:12:02;101862.87;;;6.54;100.00
28027;BME280;15344;52.342;-1.290;2023-01-26T10:14:32;101864.76;;;4.75;100.00
28027;BME280;15344;52.342;-1.290;2023-01-26T10:16:52;101862.14;;;6.20;100.00
28027;BME280;15344;52.342;-1.290;2023-01-26T10:19:20;101861.98;;;6.02;100.00
28027;BME280;15344;52.342;-1.290;2023-01-26T10:21:44;101862.19;;;5.72;100.00
28027;BME280;15344;52.342;-1.290;2023-01-26T10:24:09;101860.77;;;6.73;100.00
28027;BME280;15344;52.342;-1.290;2023-01-26T10:26:33;101859.83;;;6.33;100.00
28027;BME280;15344;52.342;-1.290;2023-01-26T10:28:59;101860.64;;;6.83;100.00
28027;BME280;15344;52.342;-1.290;2023-01-26T10:31:26;101869.59;;;5.91;100.00
28027;BME280;15344;52.342;-1.290;2023-01-26T10:33:52;101871.69;;;6.64;100.00
28027;BME280;15344;52.342;-1.290;2023-01-26T10:36:15;101872.55;;;6.22;100.00
28027;BME280;15344;52.342;-1.290;2023-01-26T10:38:42;101872.38;;;6.18;100.00
28027;BME280;15344;52.342;-1.290;2023-01-26T10:41:21;101873.96;;;7.02;100.00
28027;BME280;15344;52.342;-1.290;2023-01-26T10:43:34;101868.86;;;5.80;100.00
28027;BME280;15344;52.342;-1.290;2023-01-26T10:45:56;101874.99;;;6.27;100.00
28027;BME280;15344;52.342;-1.290;2023-01-26T10:48:23;101884.25;;;6.46;100.00
28027;BME280;15344;52.342;-1.290;2023-01-26T10:50:47;101876.98;;;6.14;100.00
28027;BME280;15344;52.342;-1.290;2023-01-26T10:53:16;101876.30;;;6.61;100.00
28027;BME280;15344;52.342;-1.290;2023-01-26T10:55:40;101871.68;;;6.61;100.00
28027;BME280;15344;52.342;-1.290;2023-01-26T10:58:04;101879.39;;;7.07;100.00
28027;BME280;15344;52.342;-1.290;2023-01-26T11:00:31;101882.43;;;6.32;100.00
28027;BME280;15344;52.342;-1.290;2023-01-26T11:03:00;101883.76;;;7.91;100.00
28027;BME280;15344;52.342;-1.290;2023-01-26T11:05:22;101882.25;;;7.99;100.00
28027;BME280;15344;52.342;-1.290;2023-01-26T11:07:47;101883.45;;;8.16;100.00
28027;BME280;15344;52.342;-1.290;2023-01-26T11:10:19;101876.51;;;8.23;100.00
28027;BME280;15344;52.342;-1.290;2023-01-26T11:12:36;101880.77;;;6.54;100.00
28027;BME280;15344;52.342;-1.290;2023-01-26T11:15:04;101877.25;;;8.21;100.00
28027;BME280;15344;52.342;-1.290;2023-01-26T11:17:32;101880.19;;;8.97;100.00
28027;BME280;15344;52.342;-1.290;2023-01-26T11:20:04;101873.38;;;8.09;100.00
28027;BME280;15344;52.342;-1.290;2023-01-26T11:22:21;101868.52;;;8.65;100.00
28027;BME280;15344;52.342;-1.290;2023-01-26T11:24:50;101865.50;;;8.36;100.00
28027;BME280;15344;52.342;-1.290;2023-01-26T11:27:21;101867.01;;;9.24;100.00
28027;BME280;15344;52.342;-1.290;2023-01-26T11:29:45;101863.65;;;8.00;100.00
28027;BME280;15344;52.342;-1.290;2023-01-26T11:32:08;101867.80;;;8.20;100.00
28027;BME280;15344;52.342;-1.290;2023-01-26T11:34:31;101871.05;;;7.60;100.00
28027;BME280;15344;52.342;-1.290;2023-01-26T11:36:59;101871.18;;;8.51;100.00
28027;BME280;15344;52.342;-1.290;2023-01-26T11:39:21;101871.03;;;7.92;100.00
28027;BME280;15344;52.342;-1.290;2023-01-26T11:41:51;101868.13;;;9.22;100.00
28027;BME280;15344;52.342;-1.290;2023-01-26T11:44:16;101864.69;;;9.24;100.00
28027;BME280;15344;52.342;-1.290;2023-01-26T11:46:44;101864.73;;;8.45;100.00
28027;BME280;15344;52.342;-1.290;2023-01-26T11:49:06;101867.45;;;8.52;100.00
28027;BME280;15344;52.342;-1.290;2023-01-26T11:51:31;101865.71;;;7.56;100.00
28027;BME280;15344;52.342;-1.290;2023-01-26T11:56:24;101864.50;;;6.78;100.00
28027;BME280;15344;52.342;-1.290;2023-01-26T11:58:43;101860.88;;;8.23;100.00
28027;BME280;15344;52.342;-1.290;2023-01-26T12:01:07;101864.72;;;8.81;100.00
28027;BME280;15344;52.342;-1.290;2023-01-26T12:03:35;101862.20;;;8.54;100.00
28027;BME280;15344;52.342;-1.290;2023-01-26T12:05:59;101859.37;;;7.80;100.00
28027;BME280;15344;52.342;-1.290;2023-01-26T12:08:24;101860.36;;;8.39;100.00
28027;BME280;15344;52.342;-1.290;2023-01-26T12:10:54;101864.57;;;8.04;100.00
28027;BME280;15344;52.342;-1.290;2023-01-26T12:13:17;101862.84;;;7.52;100.00
28027;BME280;15344;52.342;-1.290;2023-01-26T12:15:39;101852.24;;;7.09;100.00
28027;BME280;15344;52.342;-1.290;2023-01-26T12:18:09;101850.19;;;7.79;100.00
28027;BME280;15344;52.342;-1.290;2023-01-26T12:20:33;101854.84;;;7.05;100.00
28027;BME280;15344;52.342;-1.290;2023-01-26T12:22:57;101855.98;;;7.77;100.00
28027;BME280;15344;52.342;-1.290;2023-01-26T12:25:26;101856.57;;;7.57;100.00
28027;BME280;15344;52.342;-1.290;2023-01-26T12:27:49;101859.68;;;7.67;100.00
28027;BME280;15344;52.342;-1.290;2023-01-26T12:30:21;101862.57;;;7.43;100.00
28027;BME280;15344;52.342;-1.290;2023-01-26T12:32:35;101858.89;;;7.98;100.00
28027;BME280;15344;52.342;-1.290;2023-01-26T12:35:00;101856.91;;;6.92;100.00
28027;BME280;15344;52.342;-1.290;2023-01-26T12:37:37;101840.80;;;7.50;100.00
28027;BME280;15344;52.342;-1.290;2023-01-26T12:39:58;101837.27;;;7.83;100.00
28027;BME280;15344;52.342;-1.290;2023-01-26T12:42:22;101836.62;;;7.35;100.00